Time;durP1;ratioP1;P1;durP2;ratioP2;P2;SDS_P1;SDS_P2;PMS_P1;PMS_P2;Temp;Humidity;BMP_temperature;BMP_pressure;BME280_temperature;BME280_humidity;BME280_pressure;Samples;Min_cycle;Max_cycle;Signal;HPM_P1;HPM_P2
2022/10/06 00:02:22;;;;;;;3.30;2.97;;;;;;;14.01;100.00;98889.66;5033899;28;20608;-70
2022/10/06 00:04:48;;;;;;;5.33;3.40;;;;;;;14.01;100.00;98887.81;5033983;28;20214;-70
2022/10/06 00:07:15;;;;;;;3.50;3.20;;;;;;;14.03;100.00;98888.41;5033781;28;20571;-70
2022/10/06 00:09:42;;;;;;;5.07;3.57;;;;;;;13.93;100.00;98885.41;5034468;28;20240;-70
2022/10/06 00:12:09;;;;;;;6.13;3.70;;;;;;;13.85;100.00;98885.72;5033951;28;20206;-70
2022/10/06 00:14:36;;;;;;;3.60;3.23;;;;;;;13.84;100.00;98896.63;5034009;28;20284;-70
2022/10/06 00:17:03;;;;;;;4.60;3.40;;;;;;;13.78;100.00;98889.44;5033943;28;20205;-70
2022/10/06 00:19:30;;;;;;;5.27;2.90;;;;;;;13.74;100.00;98896.31;5033825;28;20206;-70
2022/10/06 00:21:56;;;;;;;4.50;3.20;;;;;;;13.64;100.00;98893.28;5033406;28;20656;-70
2022/10/06 00:24:22;;;;;;;6.37;3.20;;;;;;;13.70;100.00;98895.91;5033453;28;20666;-70
2022/10/06 00:26:49;;;;;;;4.60;3.17;;;;;;;13.68;100.00;98906.00;5033855;28;20206;-70
2022/10/06 00:29:15;;;;;;;8.13;3.37;;;;;;;13.61;100.00;98909.75;5033770;28;20206;-70
2022/10/06 00:31:42;;;;;;;6.17;3.53;;;;;;;13.59;100.00;98906.47;5033726;28;20222;-70
2022/10/06 00:34:09;;;;;;;4.07;3.20;;;;;;;13.57;100.00;98904.00;5033695;28;20206;-70
2022/10/06 00:36:35;;;;;;;6.60;3.67;;;;;;;13.57;100.00;98901.34;5032578;28;20209;-70
2022/10/06 00:39:05;;;;;;;5.57;3.60;;;;;;;13.55;100.00;98906.09;5033351;28;20206;-70
2022/10/06 00:41:32;;;;;;;5.17;3.57;;;;;;;13.51;100.00;98912.91;5033077;28;20284;-70
2022/10/06 00:43:58;;;;;;;6.00;3.17;;;;;;;13.53;100.00;98924.22;5033437;28;20214;-70
2022/10/06 00:46:37;;;;;;;4.20;3.20;;;;;;;13.51;100.00;98914.75;5033500;28;20208;-70
2022/10/06 00:49:13;;;;;;;4.63;2.90;;;;;;;13.45;100.00;98920.97;5033400;28;20210;-70
2022/10/06 00:51:45;;;;;;;6.23;3.23;;;;;;;13.42;100.00;98924.88;5033546;28;20221;-70
2022/10/06 00:54:13;;;;;;;4.27;3.40;;;;;;;13.42;100.00;98927.56;5033596;28;20217;-70
2022/10/06 00:56:40;;;;;;;5.17;3.17;;;;;;;13.48;100.00;98932.03;5033554;28;20206;-70
2022/10/06 00:59:16;;;;;;;4.40;3.17;;;;;;;13.38;100.00;98925.56;5033476;28;20206;-70
2022/10/06 01:02:03;;;;;;;7.03;3.13;;;;;;;13.45;100.00;98939.66;5033380;28;20321;-70
2022/10/06 01:04:36;;;;;;;3.87;2.90;;;;;;;13.43;100.00;98941.75;5033168;28;20194;-70
2022/10/06 01:07:04;;;;;;;3.50;2.57;;;;;;;13.40;100.00;98936.81;5033205;28;20193;-70
2022/10/06 01:09:31;;;;;;;4.20;2.63;;;;;;;13.40;100.00;98939.50;5033355;28;20202;-70
2022/10/06 01:12:01;;;;;;;3.97;2.90;;;;;;;13.37;100.00;98938.06;5033396;28;20204;-70
2022/10/06 01:14:29;;;;;;;2.80;2.60;;;;;;;13.42;100.00;98946.25;5033104;28;20587;-70
2022/10/06 01:17:16;;;;;;;3.93;3.33;;;;;;;13.43;100.00;98949.75;5033038;28;20206;-70
2022/10/06 01:19:51;;;;;;;3.10;2.80;;;;;;;13.41;100.00;98946.47;5033650;28;20235;-70
2022/10/06 01:22:30;;;;;;;3.50;2.90;;;;;;;13.38;100.00;98947.72;5032998;28;20210;-70
2022/10/06 01:24:56;;;;;;;4.83;3.27;;;;;;;13.41;100.00;98949.97;5032995;28;20633;-70
2022/10/06 01:27:26;;;;;;;4.40;2.80;;;;;;;13.46;100.00;98944.78;5033251;28;20220;-70
2022/10/06 01:29:54;;;;;;;5.23;2.50;;;;;;;13.70;100.00;98953.88;5032877;28;20736;-70
2022/10/06 01:32:22;;;;;;;4.53;2.37;;;;;;;14.16;99.86;98944.41;5033201;28;20213;-70
2022/10/06 01:34:49;;;;;;;3.37;2.20;;;;;;;14.49;96.50;98949.50;5033210;28;20214;-70
2022/10/06 01:37:16;;;;;;;2.30;2.00;;;;;;;14.75;93.46;98952.69;5033159;28;20205;-70
2022/10/06 01:39:43;;;;;;;2.70;1.70;;;;;;;14.85;92.18;98961.03;5032604;28;20713;-71
2022/10/06 01:42:10;;;;;;;6.90;2.20;;;;;;;14.88;92.03;98960.56;5032778;28;20210;-70
2022/10/06 01:44:37;;;;;;;3.57;2.10;;;;;;;14.82;92.66;98953.44;5033007;28;20292;-70
2022/10/06 01:47:07;;;;;;;3.73;1.90;;;;;;;14.90;91.83;98960.34;5033100;28;20213;-70
2022/10/06 01:49:34;;;;;;;3.77;1.87;;;;;;;14.78;93.00;98960.28;5036747;28;20210;-70
2022/10/06 01:52:01;;;;;;;3.93;2.37;;;;;;;14.80;93.02;98960.88;5036685;28;20201;-70
2022/10/06 01:54:28;;;;;;;2.63;1.70;;;;;;;14.88;91.42;98968.59;5036741;28;20293;-70
2022/10/06 01:56:54;;;;;;;2.93;2.00;;;;;;;14.76;92.37;98966.91;5037069;28;20216;-70
2022/10/06 01:59:20;;;;;;;2.40;2.20;;;;;;;14.51;95.23;98971.50;5036520;28;20209;-70
2022/10/06 02:01:47;;;;;;;4.10;2.10;;;;;;;14.39;97.33;98974.06;5036196;28;20302;-70
2022/10/06 02:04:13;;;;;;;3.93;2.13;;;;;;;14.30;98.87;98982.63;5036546;28;20206;-70
2022/10/06 02:06:40;;;;;;;3.50;2.17;;;;;;;14.21;99.96;98979.41;5036512;28;20210;-70
2022/10/06 02:09:06;;;;;;;6.73;2.30;;;;;;;14.15;100.00;98979.44;5036420;28;20216;-70
2022/10/06 02:11:34;;;;;;;2.57;2.20;;;;;;;13.95;100.00;98984.09;5035966;28;20225;-70
2022/10/06 02:14:01;;;;;;;3.83;2.20;;;;;;;13.92;100.00;98980.03;5036373;28;20300;-70
2022/10/06 02:16:29;;;;;;;3.50;2.00;;;;;;;13.72;100.00;98982.03;5036294;28;20205;-70
2022/10/06 02:18:55;;;;;;;4.23;2.50;;;;;;;13.69;100.00;98982.44;5036088;28;20205;-71
2022/10/06 02:21:23;;;;;;;3.53;2.53;;;;;;;13.56;100.00;98982.53;5036072;28;20229;-70
2022/10/06 02:23:50;;;;;;;5.03;2.30;;;;;;;13.56;100.00;98990.56;5036195;28;20212;-71
2022/10/06 02:26:17;;;;;;;4.70;2.67;;;;;;;13.45;100.00;98993.09;5036102;28;20201;-71
2022/10/06 02:28:45;;;;;;;3.07;2.37;;;;;;;13.44;100.00;98996.78;5035725;28;20256;-70
2022/10/06 02:31:12;;;;;;;4.87;2.40;;;;;;;13.40;100.00;98996.41;5035877;28;20233;-71
2022/10/06 02:33:40;;;;;;;6.20;2.67;;;;;;;13.41;100.00;98992.72;5035996;28;20209;-70
2022/10/06 02:36:09;;;;;;;6.00;2.53;;;;;;;13.49;100.00;99002.31;5035955;28;20206;-72
2022/10/06 02:38:36;;;;;;;5.93;2.20;;;;;;;13.54;100.00;99006.00;5035926;28;20292;-73
2022/10/06 02:41:02;;;;;;;2.33;2.10;;;;;;;13.52;100.00;99012.59;5035446;28;20229;-73
2022/10/06 02:43:30;;;;;;;2.20;2.00;;;;;;;13.55;100.00;99009.47;5035796;28;20205;-70
2022/10/06 02:45:58;;;;;;;4.73;2.50;;;;;;;13.59;100.00;99022.19;5035468;28;20252;-71
2022/10/06 02:48:26;;;;;;;4.63;2.30;;;;;;;13.50;100.00;99028.00;5035428;28;20655;-71
2022/10/06 02:51:05;;;;;;;4.50;2.63;;;;;;;13.46;100.00;99026.78;5035323;28;20609;-70
2022/10/06 02:53:33;;;;;;;4.27;2.30;;;;;;;13.31;100.00;99032.41;5035700;28;20537;-71
2022/10/06 02:56:08;;;;;;;6.90;2.80;;;;;;;13.39;100.00;99036.69;5035484;28;20210;-70
2022/10/06 02:58:35;;;;;;;4.23;3.07;;;;;;;13.39;100.00;99034.03;5035223;28;20189;-71
2022/10/06 03:01:11;;;;;;;6.70;3.83;;;;;;;13.29;100.00;99045.16;5034724;28;20240;-71
2022/10/06 03:03:38;;;;;;;3.57;2.73;;;;;;;13.25;100.00;99038.59;5035300;28;20206;-70
2022/10/06 03:06:21;;;;;;;6.07;3.50;;;;;;;13.17;100.00;99046.84;5035138;28;20228;-70
2022/10/06 03:08:56;;;;;;;5.43;3.40;;;;;;;13.11;100.00;99050.34;5035916;28;20248;-70
2022/10/06 03:11:25;;;;;;;4.90;3.30;;;;;;;13.03;100.00;99055.91;5034942;28;20236;-70
2022/10/06 03:13:52;;;;;;;4.63;3.63;;;;;;;13.01;100.00;99054.47;5035136;28;20206;-70
2022/10/06 03:16:25;;;;;;;5.50;3.47;;;;;;;12.98;100.00;99068.28;5034832;28;20213;-70
2022/10/06 03:18:53;;;;;;;7.67;3.37;;;;;;;12.91;100.00;99070.09;5035068;28;20195;-70
2022/10/06 03:21:21;;;;;;;5.27;3.50;;;;;;;12.84;100.00;99069.31;5035381;28;20230;-70
2022/10/06 03:23:49;;;;;;;5.23;3.73;;;;;;;12.82;100.00;99082.03;5034934;28;20212;-69
2022/10/06 03:26:19;;;;;;;4.47;3.20;;;;;;;12.80;100.00;99082.22;5034920;28;20218;-70
2022/10/06 03:28:45;;;;;;;5.10;3.33;;;;;;;12.79;100.00;99088.59;5035284;28;20206;-70
2022/10/06 03:31:13;;;;;;;7.27;3.40;;;;;;;12.80;100.00;99095.56;5034637;28;20222;-70
2022/10/06 03:33:39;;;;;;;3.83;2.80;;;;;;;12.78;100.00;99094.97;5034392;28;20661;-70
2022/10/06 03:36:15;;;;;;;4.20;2.83;;;;;;;12.72;100.00;99093.13;5034568;28;20228;-70
2022/10/06 03:38:41;;;;;;;5.43;3.03;;;;;;;12.67;100.00;99097.44;5034500;28;20300;-70
2022/10/06 03:41:09;;;;;;;6.17;3.50;;;;;;;12.70;100.00;99099.72;5034065;28;20241;-72
2022/10/06 03:43:37;;;;;;;5.70;3.60;;;;;;;12.70;100.00;99100.50;5034505;28;20300;-70
2022/10/06 03:46:04;;;;;;;5.97;3.37;;;;;;;12.73;100.00;99113.44;5034283;28;20205;-70
2022/10/06 03:48:34;;;;;;;5.67;3.23;;;;;;;12.74;100.00;99117.75;5034017;28;20210;-70
2022/10/06 03:51:06;;;;;;;4.77;3.20;;;;;;;12.69;100.00;99128.22;5034053;28;20233;-70
2022/10/06 03:53:34;;;;;;;6.07;3.20;;;;;;;12.69;100.00;99130.91;5034924;28;20194;-70
2022/10/06 03:56:02;;;;;;;3.47;3.17;;;;;;;12.66;100.00;99133.97;5034178;28;20209;-70
2022/10/06 03:58:29;;;;;;;5.87;4.00;;;;;;;12.66;100.00;99144.63;5034102;28;20215;-70
2022/10/06 04:01:06;;;;;;;3.73;3.10;;;;;;;12.62;100.00;99151.41;5034078;28;20240;-72
2022/10/06 04:03:33;;;;;;;3.23;2.93;;;;;;;12.65;100.00;99158.19;5034052;28;20200;-72
2022/10/06 04:06:02;;;;;;;3.60;2.93;;;;;;;12.64;100.00;99149.38;5033723;28;20672;-70
2022/10/06 04:08:30;;;;;;;4.63;3.30;;;;;;;12.64;100.00;99149.38;5033975;28;20213;-70
2022/10/06 04:11:23;;;;;;;5.17;2.70;;;;;;;12.74;100.00;99143.59;5033865;28;20229;-70
2022/10/06 04:13:56;;;;;;;3.70;2.63;;;;;;;12.79;100.00;99147.31;5034067;28;20209;-70
2022/10/06 04:16:25;;;;;;;4.57;3.07;;;;;;;12.81;100.00;99147.09;5034011;28;20197;-70
2022/10/06 04:18:53;;;;;;;3.80;3.00;;;;;;;12.79;100.00;99154.50;5033888;28;20212;-70
2022/10/06 04:21:21;;;;;;;4.73;2.73;;;;;;;12.76;100.00;99163.75;5033487;28;20259;-70
2022/10/06 04:23:47;;;;;;;4.90;2.90;;;;;;;12.81;100.00;99165.78;5033374;28;20680;-70
2022/10/06 04:26:16;;;;;;;3.93;2.73;;;;;;;12.79;100.00;99163.31;5033473;28;20244;-70
2022/10/06 04:28:44;;;;;;;4.37;2.90;;;;;;;12.81;100.00;99161.28;5033815;28;20229;-71
2022/10/06 04:31:19;;;;;;;4.87;2.77;;;;;;;12.82;100.00;99168.25;5033573;28;20225;-71
2022/10/06 04:33:47;;;;;;;6.03;3.73;;;;;;;12.84;100.00;99168.84;5033580;28;20204;-70
2022/10/06 04:36:16;;;;;;;4.53;3.23;;;;;;;12.85;100.00;99177.69;5033535;28;20300;-71
2022/10/06 04:38:43;;;;;;;3.83;3.00;;;;;;;12.79;100.00;99168.66;5033420;28;20212;-73
2022/10/06 04:41:18;;;;;;;5.60;2.93;;;;;;;12.73;100.00;99174.00;5032940;28;20742;-72
2022/10/06 04:43:49;;;;;;;6.13;3.70;;;;;;;12.70;100.00;99179.75;5033378;28;20190;-70
2022/10/06 04:46:17;;;;;;;7.97;2.97;;;;;;;12.68;100.00;99179.97;5033183;28;20208;-71
2022/10/06 04:48:43;;;;;;;5.33;3.23;;;;;;;12.75;100.00;99178.09;5033320;28;20209;-70
2022/10/06 04:51:15;;;;;;;6.43;3.30;;;;;;;12.77;100.00;99178.72;5032931;28;20273;-70
2022/10/06 04:53:43;;;;;;;4.90;3.60;;;;;;;12.83;100.00;99185.91;5032887;28;20199;-71
2022/10/06 04:56:20;;;;;;;8.40;3.87;;;;;;;12.83;100.00;99180.56;5033330;28;20263;-70
2022/10/06 04:58:48;;;;;;;5.97;3.67;;;;;;;12.88;100.00;99188.78;5033182;28;20205;-70
2022/10/06 05:01:19;;;;;;;3.80;3.20;;;;;;;12.90;100.00;99193.91;5032873;28;20222;-70
2022/10/06 05:03:47;;;;;;;5.60;3.67;;;;;;;12.92;100.00;99189.16;5032726;28;20201;-70
2022/10/06 05:06:15;;;;;;;6.03;3.23;;;;;;;12.95;100.00;99197.59;5033033;28;20213;-71
2022/10/06 05:08:42;;;;;;;5.13;3.80;;;;;;;13.00;100.00;99207.69;5032930;28;20202;-70
2022/10/06 05:11:11;;;;;;;5.00;3.47;;;;;;;13.01;100.00;99214.66;5032812;28;20244;-70
2022/10/06 05:13:39;;;;;;;5.47;3.40;;;;;;;13.03;100.00;99210.75;5032516;28;20220;-70
2022/10/06 05:16:08;;;;;;;5.27;3.13;;;;;;;13.05;100.00;99219.41;5032704;28;20210;-71
2022/10/06 05:18:35;;;;;;;3.57;3.27;;;;;;;13.07;100.00;99217.31;5032997;28;20223;-72
2022/10/06 05:21:05;;;;;;;4.27;3.40;;;;;;;13.12;100.00;99208.72;5032788;28;20233;-72
2022/10/06 05:23:33;;;;;;;5.97;3.23;;;;;;;13.14;100.00;99225.34;5034685;28;20692;-72
2022/10/06 05:26:00;;;;;;;4.00;3.20;;;;;;;13.11;100.00;99221.22;5036808;28;20205;-72
2022/10/06 05:28:29;;;;;;;7.87;3.70;;;;;;;13.15;100.00;99224.34;5036859;28;20209;-72
2022/10/06 05:30:57;;;;;;;4.43;3.37;;;;;;;13.17;100.00;99224.94;5036653;28;20237;-72
2022/10/06 05:33:25;;;;;;;6.37;3.50;;;;;;;13.21;100.00;99232.31;5036713;28;20216;-72
2022/10/06 05:35:56;;;;;;;4.80;3.23;;;;;;;13.27;100.00;99242.19;5036523;28;20210;-72
2022/10/06 05:38:23;;;;;;;4.27;3.27;;;;;;;13.44;100.00;99238.06;5036426;28;20196;-71
2022/10/06 05:40:50;;;;;;;6.60;3.70;;;;;;;13.52;100.00;99240.47;5035732;28;20229;-72
2022/10/06 05:43:17;;;;;;;7.43;3.10;;;;;;;13.57;100.00;99245.22;5036183;28;20696;-72
2022/10/06 05:45:58;;;;;;;6.57;3.00;;;;;;;13.72;100.00;99251.13;5036400;28;20205;-72
2022/10/06 05:48:25;;;;;;;5.67;3.27;;;;;;;13.82;100.00;99252.34;5036510;28;20205;-73
2022/10/06 05:51:06;;;;;;;8.17;3.60;;;;;;;13.82;100.00;99249.66;5036084;28;20226;-72
2022/10/06 05:53:34;;;;;;;4.97;3.23;;;;;;;13.75;100.00;99256.88;5036121;28;20186;-73
2022/10/06 05:56:09;;;;;;;9.30;3.83;;;;;;;13.76;100.00;99255.03;5036238;28;20202;-72
2022/10/06 05:58:37;;;;;;;4.03;3.00;;;;;;;13.70;100.00;99264.69;5036257;28;20206;-72
2022/10/06 06:01:17;;;;;;;11.33;4.27;;;;;;;13.68;100.00;99265.94;5035974;28;20230;-72
2022/10/06 06:03:51;;;;;;;6.47;3.90;;;;;;;13.62;100.00;99272.94;5035908;28;20190;-73
2022/10/06 06:06:23;;;;;;;7.80;4.30;;;;;;;13.60;100.00;99274.16;5035892;28;20194;-73
2022/10/06 06:08:55;;;;;;;7.33;4.20;;;;;;;13.61;100.00;99273.97;5036230;28;20630;-71
2022/10/06 06:11:25;;;;;;;8.20;4.27;;;;;;;13.60;100.00;99285.69;5035828;28;20226;-71
2022/10/06 06:14:02;;;;;;;8.83;4.10;;;;;;;13.64;100.00;99284.25;5035708;28;20202;-71
2022/10/06 06:16:29;;;;;;;7.70;4.30;;;;;;;13.60;100.00;99296.38;5036128;28;20190;-71
2022/10/06 06:18:56;;;;;;;7.47;3.80;;;;;;;13.55;100.00;99293.50;5035678;28;20202;-71
2022/10/06 06:21:23;;;;;;;5.30;3.80;;;;;;;13.58;100.00;99297.63;5035377;28;20704;-71
2022/10/06 06:23:50;;;;;;;7.57;4.00;;;;;;;13.53;100.00;99300.94;5034714;28;20665;-71
2022/10/06 06:26:25;;;;;;;7.27;4.00;;;;;;;13.52;100.00;99301.13;5035431;28;20246;-71
2022/10/06 06:28:53;;;;;;;6.37;3.63;;;;;;;13.55;100.00;99306.88;5035442;28;20193;-71
2022/10/06 06:31:28;;;;;;;8.60;4.47;;;;;;;13.54;100.00;99312.41;5035370;28;20237;-71
2022/10/06 06:33:56;;;;;;;9.10;4.57;;;;;;;13.59;100.00;99320.63;5033749;28;20537;-71
2022/10/06 06:36:27;;;;;;;8.43;4.13;;;;;;;13.62;100.00;99318.34;5035391;28;20201;-71
2022/10/06 06:38:55;;;;;;;7.40;4.23;;;;;;;13.63;100.00;99317.34;5034958;28;20221;-71
2022/10/06 06:41:32;;;;;;;7.87;4.23;;;;;;;13.66;100.00;99327.59;5034843;28;20712;-71
2022/10/06 06:43:59;;;;;;;8.53;4.60;;;;;;;13.69;100.00;99324.53;5034706;28;20186;-70
2022/10/06 06:46:30;;;;;;;9.30;4.87;;;;;;;13.72;100.00;99334.81;5034561;28;20206;-70
2022/10/06 06:48:57;;;;;;;7.87;4.83;;;;;;;13.75;100.00;99337.06;5035282;28;20277;-71
2022/10/06 06:51:24;;;;;;;10.00;4.97;;;;;;;13.80;100.00;99339.91;5034654;28;20312;-71
2022/10/06 06:53:51;;;;;;;7.27;4.50;;;;;;;13.83;100.00;99336.84;5034583;28;20691;-70
2022/10/06 06:56:19;;;;;;;12.87;4.90;;;;;;;13.94;100.00;99348.75;5034704;28;20692;-70
2022/10/06 06:58:47;;;;;;;7.93;4.70;;;;;;;13.92;100.00;99350.81;5034645;28;20206;-70
2022/10/06 07:01:19;;;;;;;8.87;5.23;;;;;;;14.06;100.00;99355.91;5034760;28;20229;-70
2022/10/06 07:03:51;;;;;;;7.37;4.40;;;;;;;14.38;100.00;99356.91;5034917;28;20221;-71
2022/10/06 07:06:17;;;;;;;9.77;4.27;;;;;;;14.55;100.00;99369.59;5034984;28;20201;-70
2022/10/06 07:08:46;;;;;;;9.03;4.03;;;;;;;14.74;100.00;99371.34;5034835;28;20210;-70
2022/10/06 07:11:23;;;;;;;7.77;3.40;;;;;;;14.80;100.00;99373.19;5034690;28;20230;-70
2022/10/06 07:13:54;;;;;;;8.07;3.60;;;;;;;14.94;100.00;99377.44;5034677;28;20193;-70
2022/10/06 07:27:29;;;;;;;6.77;2.50;;;;;;;15.29;100.00;99392.03;5034663;28;20205;-70
2022/10/06 07:29:55;;;;;;;6.77;2.53;;;;;;;15.28;100.00;99392.25;5034305;28;20234;-70
2022/10/06 07:32:23;;;;;;;7.47;2.57;;;;;;;15.36;100.00;99398.19;5034232;28;20228;-70
2022/10/06 07:34:50;;;;;;;5.80;2.90;;;;;;;15.42;100.00;99402.69;5034457;28;20210;-71
2022/10/06 07:37:17;;;;;;;5.37;2.60;;;;;;;15.52;100.00;99399.53;5034379;28;20206;-71
2022/10/06 07:39:46;;;;;;;9.03;2.80;;;;;;;15.46;100.00;99395.84;5034126;28;20226;-71
2022/10/06 07:42:13;;;;;;;5.97;2.60;;;;;;;15.50;100.00;99399.75;5034156;28;20210;-70
2022/10/06 07:44:40;;;;;;;5.00;2.60;;;;;;;15.44;100.00;99406.00;5033514;28;20661;-73
2022/10/06 07:47:07;;;;;;;3.53;2.23;;;;;;;15.42;100.00;99409.94;5033827;28;20210;-72
2022/10/06 07:49:34;;;;;;;7.03;2.33;;;;;;;15.40;100.00;99404.78;5034135;28;20254;-70
2022/10/06 07:52:01;;;;;;;5.80;2.10;;;;;;;15.46;100.00;99411.09;5034067;28;20210;-70
2022/10/06 07:54:28;;;;;;;7.83;2.20;;;;;;;15.42;100.00;99423.31;5034051;28;20245;-70
2022/10/06 07:56:55;;;;;;;5.70;2.37;;;;;;;15.46;98.85;99414.63;5033818;28;20206;-73
2022/10/06 07:59:21;;;;;;;6.27;1.90;;;;;;;15.49;98.38;99419.56;5033665;28;20217;-70
2022/10/06 08:01:50;;;;;;;7.93;2.03;;;;;;;15.47;99.21;99424.28;5034008;28;20202;-70
2022/10/06 08:04:16;;;;;;;9.40;2.43;;;;;;;15.50;100.00;99417.69;5033943;28;20229;-71
2022/10/06 08:06:42;;;;;;;6.63;2.50;;;;;;;15.49;99.18;99419.56;5034040;28;20217;-70
2022/10/06 08:09:09;;;;;;;6.90;2.20;;;;;;;15.46;100.00;99419.97;5034593;28;20214;-70
2022/10/06 08:11:35;;;;;;;4.27;2.57;;;;;;;15.52;99.27;99424.47;5033809;28;20230;-70
2022/10/06 08:14:01;;;;;;;5.50;2.50;;;;;;;15.48;98.88;99431.31;5033794;28;20208;-70
2022/10/06 08:16:29;;;;;;;8.30;2.20;;;;;;;15.45;100.00;99423.72;5033678;28;20229;-71
2022/10/06 08:18:57;;;;;;;5.23;2.30;;;;;;;15.45;98.46;99421.03;5033426;28;20213;-70
2022/10/06 08:21:29;;;;;;;10.57;2.60;;;;;;;15.53;99.16;99430.66;5033306;28;20237;-70
2022/10/06 08:23:57;;;;;;;6.40;2.20;;;;;;;15.52;100.00;99437.88;5033558;28;20214;-70
2022/10/06 08:26:25;;;;;;;7.47;2.17;;;;;;;15.47;99.82;99437.69;5033602;28;20245;-70
2022/10/06 08:28:56;;;;;;;6.73;2.40;;;;;;;15.48;99.73;99450.09;5033269;28;20735;-70
2022/10/06 08:31:23;;;;;;;7.03;2.20;;;;;;;15.72;97.02;99451.97;5033461;28;20230;-70
2022/10/06 08:33:54;;;;;;;5.43;2.40;;;;;;;15.60;99.39;99455.56;5033668;28;20198;-70
2022/10/06 08:36:21;;;;;;;6.10;2.30;;;;;;;15.57;100.00;99456.84;5033374;28;20668;-70
2022/10/06 08:38:49;;;;;;;6.60;2.13;;;;;;;15.60;99.64;99461.75;5033269;28;20673;-70
2022/10/06 08:41:25;;;;;;;9.57;2.30;;;;;;;15.59;94.05;99457.41;5033102;28;20244;-70
2022/10/06 08:43:58;;;;;;;5.70;2.00;;;;;;;15.67;95.32;99459.84;5032860;28;20706;-70
2022/10/06 08:46:30;;;;;;;4.67;1.80;;;;;;;15.62;91.96;99475.75;5033337;28;20202;-70
2022/10/06 08:48:57;;;;;;;6.10;1.77;;;;;;;15.67;91.16;99469.72;5033476;28;20196;-70
2022/10/06 08:51:58;;;;;;;2.97;1.67;;;;;;;15.65;89.12;99469.16;5033287;28;20265;-70
2022/10/06 08:54:46;;;;;;;7.37;2.07;;;;;;;15.76;89.95;99471.13;4979551;28;20211;-70
2022/10/06 08:57:42;;;;;;;3.10;1.43;;;;;;;15.72;90.11;99476.09;5032498;28;20210;-73
2022/10/06 09:00:13;;;;;;;5.23;1.80;;;;;;;15.70;88.12;99480.03;4979417;28;20228;-70
2022/10/06 09:02:45;;;;;;;6.73;1.87;;;;;;;15.75;87.77;99481.00;5033287;28;20213;-71
2022/10/06 09:05:18;;;;;;;6.47;1.97;;;;;;;15.75;87.08;99480.22;5033185;28;20197;-70
2022/10/06 09:08:12;;;;;;;5.30;1.70;;;;;;;15.85;87.42;99485.91;5033237;28;20186;-71
2022/10/06 09:11:04;;;;;;;2.10;1.27;;;;;;;15.91;85.31;99483.16;5032649;28;20232;-71
2022/10/06 09:13:39;;;;;;;4.20;1.77;;;;;;;16.19;82.54;99483.53;5029932;28;20209;-71
2022/10/06 09:16:10;;;;;;;4.87;1.83;;;;;;;15.91;85.76;99490.38;5033088;28;20197;-71
2022/10/06 09:18:53;;;;;;;4.67;1.50;;;;;;;15.90;85.55;99492.25;5033116;28;20195;-70
2022/10/06 09:21:29;;;;;;;5.40;1.73;;;;;;;15.86;83.02;99491.06;5033021;28;20291;-71
2022/10/06 09:24:01;;;;;;;4.10;1.50;;;;;;;15.88;85.47;99499.69;5032909;28;20294;-71
2022/10/06 09:26:30;;;;;;;4.83;2.00;;;;;;;15.92;84.83;99495.53;5032672;28;20194;-71
2022/10/06 09:28:57;;;;;;;6.13;1.50;;;;;;;16.05;83.87;99500.00;5032724;28;20201;-71
2022/10/06 09:31:26;;;;;;;3.57;1.47;;;;;;;16.23;81.05;99490.13;5032761;28;20229;-71
2022/10/06 09:33:55;;;;;;;7.03;1.60;;;;;;;16.35;80.11;99498.28;5032617;28;20662;-71
2022/10/06 09:36:23;;;;;;;4.30;1.70;;;;;;;16.16;81.02;99493.91;5032759;28;20233;-70
2022/10/06 09:38:54;;;;;;;3.60;1.60;;;;;;;16.20;82.54;99495.91;5032601;28;20209;-71
2022/10/06 09:41:26;;;;;;;7.10;1.60;;;;;;;16.31;81.41;99511.31;5032299;28;20613;-71
2022/10/06 09:44:03;;;;;;;6.77;1.70;;;;;;;16.32;81.54;99512.13;5032412;28;20678;-71
2022/10/06 09:46:31;;;;;;;4.00;1.50;;;;;;;16.38;86.32;99511.25;5032906;28;20197;-71
2022/10/06 09:49:17;;;;;;;5.93;1.70;;;;;;;16.48;79.83;99517.81;5032413;28;20210;-71
2022/10/06 09:52:17;;;;;;;6.60;1.60;;;;;;;16.23;80.57;99524.16;5032569;28;20222;-71
2022/10/06 09:54:44;;;;;;;4.20;1.80;;;;;;;16.20;82.24;99521.94;5021096;28;20246;-71
2022/10/06 09:57:18;;;;;;;2.30;1.50;;;;;;;16.17;84.08;99522.38;5032179;28;20210;-70
2022/10/06 09:59:47;;;;;;;5.27;1.80;;;;;;;16.12;83.33;99527.56;5032455;28;20565;-71
2022/10/06 10:02:43;;;;;;;2.63;1.20;;;;;;;16.18;84.68;99529.38;5032548;28;20206;-71
2022/10/06 10:05:22;;;;;;;4.50;1.60;;;;;;;16.49;82.32;99530.19;5019552;28;20209;-70
2022/10/06 10:08:01;;;;;;;3.53;1.50;;;;;;;16.15;81.81;99530.63;5031914;28;20206;-71
2022/10/06 10:10:28;;;;;;;6.07;1.73;;;;;;;16.28;81.96;99521.69;5036117;28;20225;-71
2022/10/06 10:12:57;;;;;;;8.43;1.70;;;;;;;16.31;79.13;99521.22;5035657;28;20206;-71
2022/10/06 10:15:33;;;;;;;7.30;1.60;;;;;;;16.16;78.80;99524.25;5035690;28;20216;-71
2022/10/06 10:18:10;;;;;;;5.57;1.33;;;;;;;16.07;78.68;99525.56;5035926;28;20194;-71
2022/10/06 10:20:54;;;;;;;4.30;1.40;;;;;;;16.13;79.18;99530.06;5035936;28;20232;-72
2022/10/06 10:23:23;;;;;;;3.77;1.57;;;;;;;16.17;80.59;99519.69;5034187;28;20210;-71
2022/10/06 10:26:13;;;;;;;3.43;1.37;;;;;;;16.39;77.90;99523.63;5035976;28;20218;-71
2022/10/06 10:28:58;;;;;;;2.53;1.50;;;;;;;16.93;77.88;99523.72;5034456;28;20225;-72
2022/10/06 10:31:30;;;;;;;2.83;1.30;;;;;;;16.88;72.96;99519.00;5035293;28;20230;-71
2022/10/06 10:34:03;;;;;;;5.40;1.50;;;;;;;17.19;73.24;99518.06;5035440;28;20244;-71
2022/10/06 10:37:04;;;;;;;2.60;1.17;;;;;;;17.13;71.55;99522.44;5035681;28;20206;-72
2022/10/06 10:39:40;;;;;;;6.50;1.73;;;;;;;17.60;71.22;99516.25;5025133;28;20656;-71
2022/10/06 10:42:17;;;;;;;4.10;1.23;;;;;;;17.87;69.74;99514.81;5035240;28;20196;-72
2022/10/06 10:45:01;;;;;;;5.20;1.40;;;;;;;17.49;72.47;99517.06;5034147;28;20218;-71
2022/10/06 10:47:41;;;;;;;4.03;1.73;;;;;;;17.44;71.40;99514.22;5035514;28;20214;-71
2022/10/06 10:50:22;;;;;;;5.37;1.67;;;;;;;17.44;75.27;99511.53;5035145;28;20226;-72
2022/10/06 10:52:51;;;;;;;4.77;1.50;;;;;;;17.41;75.44;99511.19;5035138;28;20198;-71
2022/10/06 10:55:27;;;;;;;4.30;1.60;;;;;;;17.33;72.11;99498.81;5034743;28;20546;-71
2022/10/06 10:58:13;;;;;;;6.67;1.63;;;;;;;17.18;74.71;99506.47;5034911;28;20720;-71
2022/10/06 11:00:44;;;;;;;3.33;1.30;;;;;;;17.08;74.04;99508.88;5035216;28;20229;-71
2022/10/06 11:03:11;;;;;;;2.90;1.37;;;;;;;17.07;74.17;99495.66;5034980;28;20214;-71
2022/10/06 11:06:13;;;;;;;5.00;1.43;;;;;;;17.13;73.44;99494.75;5035059;28;20202;-71
2022/10/06 11:09:06;;;;;;;4.27;1.23;;;;;;;17.69;70.38;99506.03;5019598;28;20193;-71
2022/10/06 11:11:35;;;;;;;5.23;1.57;;;;;;;17.65;74.41;99505.63;5026603;28;20418;-72
2022/10/06 11:14:08;;;;;;;3.03;1.50;;;;;;;17.03;72.74;99515.97;5034901;28;20217;-71
2022/10/06 11:16:35;;;;;;;9.00;1.87;;;;;;;16.89;74.26;99509.09;5035599;28;20194;-71
2022/10/06 11:19:34;;;;;;;5.77;1.77;;;;;;;16.91;76.38;99518.56;5034409;28;20206;-72
2022/10/06 11:22:28;;;;;;;4.53;1.40;;;;;;;17.03;74.34;99506.03;5034081;28;20198;-72
2022/10/06 11:25:21;;;;;;;4.83;1.53;;;;;;;17.08;74.91;99513.41;5034384;28;20206;-71
2022/10/06 11:28:06;;;;;;;2.87;1.40;;;;;;;17.21;73.34;99503.34;5023769;28;20209;-72
2022/10/06 11:30:40;;;;;;;6.30;1.33;;;;;;;17.30;73.43;99507.34;5034230;28;20739;-72
2022/10/06 11:33:20;;;;;;;4.47;1.37;;;;;;;17.10;77.56;99496.00;5033296;28;20181;-71
2022/10/06 11:35:48;;;;;;;7.77;1.70;;;;;;;17.03;73.92;99495.28;5034781;28;20185;-71
2022/10/06 11:38:21;;;;;;;3.23;1.27;;;;;;;16.76;72.43;99499.34;5034327;28;20206;-71
2022/10/06 11:41:00;;;;;;;10.17;1.60;;;;;;;17.00;72.95;99506.47;5033817;28;20241;-71
2022/10/06 11:43:39;;;;;;;2.67;1.20;;;;;;;17.09;70.82;99494.38;5033207;28;20210;-71
2022/10/06 11:46:43;;;;;;;4.67;1.23;;;;;;;17.29;68.75;99494.94;5033699;28;20645;-71
2022/10/06 11:49:50;;;;;;;5.67;1.53;;;;;;;17.43;66.61;99493.78;5034003;28;20189;-71
2022/10/06 11:52:17;;;;;;;4.03;1.40;;;;;;;17.28;66.71;99489.81;5004312;28;20208;-71
2022/10/06 11:54:49;;;;;;;3.77;1.37;;;;;;;17.39;66.77;99487.22;5033730;28;20551;-71
2022/10/06 11:57:25;;;;;;;3.57;1.40;;;;;;;17.38;67.37;99482.03;5034197;28;20200;-71
2022/10/06 12:00:15;;;;;;;4.03;1.40;;;;;;;17.55;67.53;99480.38;5033453;28;20808;-71
2022/10/06 12:02:43;;;;;;;2.23;1.17;;;;;;;17.75;67.95;99483.56;5005865;28;20209;-72